Latest Coastal Weather Observations for Portland Airport

IDV60701

Issued at 12:32 am EST Sunday 26 June 2022 (issued every 10 minutes, with the page automatically refreshed every 10 minutes)

About coastal observations | Map of coastal stations | Coastal observations for VIC | Marine services | Other Formats
Station Details ID: 090171 Name: CASHMORE AIRPORT Lat: -38.31 Lon: 141.47 Height: 80.9 m
Data from the previous 72 hours. | See also: Recent months at Portland Airport
Date/Time
EST
Wind Sea
Height
m
Swell Vis
km
Cloud Weather Temp
°C
Press
MSL
hPa
Rain since
9am
mm
Dir  Spd
kts
Gust
kts
Height
m
Period
s
Dir
26/12:30am NNW 8 11 - - - - 10 Partly cloudy - 10.7 1019.3 3.4
26/12:00am NW 10 14 - - - - 10 Cloudy - 11.1 1019.3 3.4
 
Date/Time
EST
Wind Sea
Height
m
Swell Vis
km
Cloud Weather Temp
°C
Press
MSL
hPa
Rain since
9am
mm
Dir  Spd
kts
Gust
kts
Height
m
Period
s
Dir
25/11:30pm WNW 13 17 - - - - 10 Partly cloudy - 11.4 1019.1 3.4
25/11:00pm NW 12 17 - - - - 9 Partly cloudy - 11.3 1018.9 3.4
25/10:35pm WNW 14 19 - - - - 10 Partly cloudy - 11.3 1018.9 3.4
25/10:30pm NW 14 19 - - - - 8 Partly cloudy - 11.2 1018.9 3.4
25/10:17pm WNW 13 17 - - - - 5 Partly cloudy - 11.2 1019.0 3.2
25/10:07pm WNW 15 19 - - - - 10 Partly cloudy - 11.2 1018.8 2.6
25/10:00pm WNW 17 22 - - - - 8 Partly cloudy - 11.2 1018.7 2.6
25/09:55pm NW 18 25 - - - - 5 Partly cloudy - 11.3 1018.7 2.6
25/09:49pm WNW 15 25 - - - - 8 Partly cloudy - 11.4 1018.8 2.6
25/09:30pm WNW 14 19 - - - - 10 Partly cloudy - 11.3 1018.7 2.2
25/09:00pm WNW 13 17 - - - - 9 Cloudy Rain 11.6 1018.5 2.0
25/08:43pm WNW 14 21 - - - - 10 Partly cloudy - 11.7 1018.2 1.8
25/08:30pm WNW 13 18 - - - - 5 Partly cloudy - 11.5 1018.2 1.6
25/08:22pm WNW 14 20 - - - - 5 Partly cloudy - 11.5 1018.1 1.2
25/08:00pm NW 16 21 - - - - 10 Partly cloudy - 11.3 1018.0 0.6
25/07:30pm NW 13 19 - - - - 10 Partly cloudy - 11.9 1018.0 0.6
25/07:00pm NW 14 22 - - - - 10 Partly cloudy - 12.1 1017.6 0.6
25/06:30pm NW 12 17 - - - - 9 Partly cloudy - 12.0 1017.3 0.4
25/06:00pm NW 14 20 - - - - 10 Partly cloudy - 12.0 1017.1 0.4
25/05:30pm NW 15 20 - - - - 10 - - 11.8 1016.8 0.4
25/05:00pm WNW 14 19 - - - - 10 Partly cloudy - 11.8 1016.7 0.4
25/04:32pm NW 16 22 - - - - 10 Partly cloudy - 12.1 1016.6 0.4
25/04:30pm NW 16 22 - - - - 10 Partly cloudy - 12.1 1016.6 0.4
25/04:14pm WNW 20 37 - - - - 5 Partly cloudy - 12.3 1016.7 0.4
25/04:11pm WNW 17 37 - - - - 10 Partly cloudy - 12.9 1016.5 0.2
25/04:00pm WNW 15 25 - - - - 10 Partly cloudy - 13.9 1016.5 0.2
25/03:30pm WNW 17 24 - - - - 10 Partly cloudy - 14.5 1016.4 0.2
25/03:02pm WNW 18 29 - - - - 10 Partly cloudy - 14.6 1016.3 0.2
25/03:00pm WNW 18 26 - - - - 10 Mostly clear - 14.6 1016.3 0.2
25/02:36pm WNW 18 29 - - - - 10 Partly cloudy - 14.7 1016.5 0.2
25/02:30pm WNW 19 24 - - - - 10 Partly cloudy - 14.9 1016.5 0.2
25/02:00pm WNW 16 22 - - - - 10 Partly cloudy - 13.8 1016.9 0.2
25/01:30pm WNW 17 24 - - - - 10 Partly cloudy - 13.8 1017.0 0.2
25/01:00pm WNW 15 20 - - - - 10 Partly cloudy - 13.2 1017.4 0.2
25/12:56pm WNW 15 21 - - - - 10 Partly cloudy - 12.9 1017.5 0.2
25/12:39pm WNW 15 21 - - - - 5 Partly cloudy - 12.5 1017.6 0.0
25/12:30pm NW 14 19 - - - - 10 Partly cloudy - 13.4 1017.6 0.0
25/12:00pm NW 15 22 - - - - 10 Partly cloudy - 13.9 1017.7 0.0
25/11:30am NW 17 24 - - - - 10 - - 13.8 1017.9 0.0
25/11:00am NW 15 22 - - - - 10 Partly cloudy - 12.9 1017.9 0.0
25/10:30am NW 14 20 - - - - 10 Partly cloudy - 11.4 1018.0 0.0
25/10:00am NW 11 16 - - - - 9 Partly cloudy - 11.3 1017.8 0.0
25/09:30am NNW 10 13 - - - - 10 Partly cloudy - 10.5 1017.4 0.0
25/09:00am NNW 11 15 - - - - 10 Cloudy - 9.9 1017.3 1.6
25/08:30am NNW 11 16 - - - - 10 - - 8.7 1017.0 1.6
25/08:00am NNW 11 14 - - - - 10 Partly cloudy - 8.6 1016.9 1.6
25/07:30am NNW 8 12 - - - - 10 Partly cloudy - 8.5 1016.7 1.6
25/07:00am NW 11 16 - - - - 10 Partly cloudy - 9.9 1016.4 1.6
25/06:30am NNW 10 14 - - - - 10 - - 9.4 1016.1 1.4
25/06:00am NNW 9 13 - - - - 10 Partly cloudy - 9.0 1016.1 1.4
25/05:30am NNW 9 15 - - - - 10 Partly cloudy - 9.1 1015.8 1.4
25/05:00am NW 9 13 - - - - 10 Partly cloudy - 9.2 1015.7 1.4
25/04:30am NW 7 11 - - - - 10 Partly cloudy - 9.1 1015.6 1.4
25/04:00am NW 9 13 - - - - 10 Partly cloudy - 9.5 1015.5 1.4
25/03:30am NW 8 11 - - - - 10 Partly cloudy - 9.5 1015.6 1.4
25/03:00am NW 10 14 - - - - 10 Partly cloudy - 9.6 1015.5 1.4
25/02:30am NW 14 21 - - - - 7 Partly cloudy - 9.9 1015.7 1.4
25/02:00am NW 9 14 - - - - 10 Partly cloudy - 9.6 1015.7 1.4
25/01:30am NNW 9 13 - - - - 10 Partly cloudy - 8.9 1015.7 1.4
25/01:00am NNW 9 13 - - - - 10 Partly cloudy - 9.2 1016.0 1.4
25/12:30am NNW 8 12 - - - - 10 Partly cloudy - 9.0 1016.2 1.2
25/12:00am NNW 10 15 - - - - 10 Mostly cloudy - 9.4 1016.4 1.2
 
Date/Time
EST
Wind Sea
Height
m
Swell Vis
km
Cloud Weather Temp
°C
Press
MSL
hPa
Rain since
9am
mm
Dir  Spd
kts
Gust
kts
Height
m
Period
s
Dir
24/11:30pm NNW 11 14 - - - - 10 Partly cloudy - 8.9 1016.3 1.2
24/11:00pm NNW 10 14 - - - - 10 - - 8.7 1016.3 1.2
24/10:30pm NNW 9 12 - - - - 10 Partly cloudy - 8.6 1016.4 1.2
24/10:00pm NNW 8 14 - - - - 10 - - 8.9 1016.5 1.2
24/09:30pm NNW 8 12 - - - - 10 Partly cloudy - 8.9 1016.6 1.2
24/09:00pm NNW 7 10 - - - - 10 Mostly clear - 9.0 1016.6 1.2
24/08:30pm NNW 9 13 - - - - 10 Partly cloudy - 9.6 1016.6 1.2
24/08:00pm NNW 7 10 - - - - 10 Partly cloudy - 9.6 1016.6 1.2
24/07:30pm NNW 7 9 - - - - 10 Partly cloudy - 9.8 1016.5 1.2
24/07:00pm NW 9 15 - - - - 10 Partly cloudy - 10.3 1016.3 1.2
24/06:30pm NNW 8 11 - - - - 10 Partly cloudy - 10.3 1016.1 1.2
24/06:25pm NW 8 11 - - - - 10 Partly cloudy - 10.3 1016.0 1.2
24/06:05pm NW 9 14 - - - - 5 Partly cloudy - 10.6 1016.0 0.8
24/06:00pm NNW 7 10 - - - - 8 Cloudy Rain 10.7 1015.9 0.6
24/05:30pm NW 5 7 - - - - 10 Partly cloudy - 10.9 1015.6 0.4
24/05:00pm NW 11 14 - - - - 10 Partly cloudy - 11.4 1015.6 0.2
24/04:30pm W 9 12 - - - - 10 Partly cloudy - 12.4 1015.4 0.2
24/04:00pm W 10 14 - - - - 10 Partly cloudy - 12.7 1015.3 0.2
24/03:30pm W 9 12 - - - - 10 Partly cloudy - 12.7 1015.3 0.2
24/03:00pm W 11 14 - - - - 10 Cloudy - 12.8 1015.1 0.2
24/02:30pm WNW 13 19 - - - - 8 Partly cloudy - 12.4 1015.1 0.2
24/02:00pm W 13 18 - - - - 10 Partly cloudy - 13.8 1014.9 0.2
24/01:30pm WSW 13 18 - - - - 10 Partly cloudy - 13.8 1015.0 0.2
24/01:00pm WSW 14 20 - - - - 10 Partly cloudy - 13.6 1015.3 0.2
24/12:30pm WSW 15 20 - - - - 10 Partly cloudy - 13.5 1015.5 0.2
24/12:00pm WSW 13 20 - - - - 10 Cloudy Recent precip. 13.2 1015.6 0.2
24/11:30am WSW 14 19 - - - - 10 Partly cloudy - 12.8 1015.8 0.2
24/11:22am W 12 19 - - - - 10 Partly cloudy - 12.7 1015.7 0.2
24/11:00am WSW 18 24 - - - - 5 Partly cloudy - 11.3 1015.9 0.0
24/10:30am WSW 11 17 - - - - 10 Partly cloudy - 13.0 1015.4 0.0
24/10:00am WSW 15 20 - - - - 10 Partly cloudy - 13.1 1015.2 0.0
24/09:30am WSW 15 20 - - - - 10 - - 12.4 1014.9 0.0
24/09:00am WSW 14 20 - - - - 10 Partly cloudy - 12.2 1014.6 17.8
24/08:30am WSW 13 18 - - - - 10 Partly cloudy - 11.6 1014.4 17.8
24/08:15am WSW 15 27 - - - - 10 Partly cloudy - 12.1 1014.2 17.8
24/08:00am WSW 15 20 - - - - 10 Partly cloudy - 11.7 1014.1 17.8
24/07:30am WSW 15 19 - - - - 10 Partly cloudy - 11.8 1013.7 17.8
24/07:00am WSW 19 26 - - - - 10 Partly cloudy - 11.8 1013.2 17.8
24/06:30am WSW 17 24 - - - - 10 Partly cloudy - 11.8 1012.8 17.8
24/06:00am WSW 16 22 - - - - 10 Mostly cloudy - 11.9 1012.3 17.8
24/05:30am WSW 15 19 - - - - 10 Partly cloudy - 11.8 1012.2 17.8
24/05:00am WSW 16 24 - - - - 10 Partly cloudy - 12.0 1011.8 17.8
24/04:58am WSW 16 24 - - - - 10 Partly cloudy - 11.9 1011.8 17.8
24/04:47am WSW 17 23 - - - - 10 Partly cloudy - 11.9 1011.9 17.8
24/04:34am WSW 18 28 - - - - 10 Partly cloudy - 11.8 1011.8 17.8
24/04:30am WSW 19 28 - - - - 10 Partly cloudy - 11.7 1011.7 17.8
24/04:00am W 19 28 - - - - 10 Partly cloudy - 12.4 1011.2 17.6
24/03:54am W 15 28 - - - - 10 Partly cloudy - 12.3 1011.2 17.6
24/03:40am W 16 21 - - - - 10 Partly cloudy - 12.2 1011.3 17.2
24/03:36am W 16 20 - - - - 10 Partly cloudy - 12.1 1011.3 17.2
24/03:30am W 17 23 - - - - 8 Partly cloudy - 11.9 1011.4 17.2
24/03:26am W 16 23 - - - - 5 Partly cloudy - 11.6 1011.4 17.2
24/03:21am WNW 13 23 - - - - 7 Partly cloudy - 11.9 1011.4 17.2
24/03:00am WNW 14 23 - - - - 3 Cloudy Rain 11.8 1011.3 16.2
24/02:51am WNW 13 17 - - - - 5 Partly cloudy - 11.8 1011.2 15.2
24/02:38am WNW 14 20 - - - - 10 Partly cloudy - 11.7 1011.1 15.0
24/02:30am WNW 13 20 - - - - 7 Partly cloudy - 11.8 1011.2 15.0
24/02:09am NW 11 15 - - - - 5 Partly cloudy - 11.9 1011.2 14.6
24/02:06am NW 11 15 - - - - 5 Partly cloudy - 11.8 1011.1 14.6
24/02:00am NW 10 15 - - - - 9 Partly cloudy - 11.8 1011.1 14.4
24/01:30am NW 9 14 - - - - 10 Partly cloudy - 11.7 1011.1 14.4
24/01:00am NW 8 13 - - - - 10 Partly cloudy - 11.7 1011.3 14.4
24/12:30am NW 9 11 - - - - 10 Partly cloudy - 11.8 1011.4 14.2
24/12:00am NW 7 9 - - - - 10 Cloudy Rain 11.6 1011.6 14.2
 
Date/Time
EST
Wind Sea
Height
m
Swell Vis
km
Cloud Weather Temp
°C
Press
MSL
hPa
Rain since
9am
mm
Dir  Spd
kts
Gust
kts
Height
m
Period
s
Dir
23/11:37pm W 6 9 - - - - 10 Partly cloudy - 11.6 1011.7 14.0
23/11:36pm W 6 8 - - - - 10 Partly cloudy - 11.6 1011.7 14.0
23/11:30pm WSW 5 7 - - - - 8 Partly cloudy - 11.6 1011.4 14.0
23/11:00pm WSW 10 13 - - - - 5 Partly cloudy - 12.0 1012.1 10.8
23/10:48pm W 11 17 - - - - 4 Partly cloudy - 11.9 1012.1 9.4
23/10:30pm WSW 15 24 - - - - 3 Partly cloudy - 11.9 1012.1 4.6
23/10:18pm WNW 12 17 - - - - 5 Partly cloudy - 12.9 1012.0 1.6
23/10:00pm NW 15 23 - - - - 10 Partly cloudy - 13.7 1011.6 0.0
23/09:30pm NW 16 24 - - - - 10 Partly cloudy - 13.9 1011.3 0.0
23/09:00pm NW 15 23 - - - - 10 Mostly cloudy - 13.4 1011.1 0.0
23/08:30pm NNW 15 22 - - - - 10 - - 13.5 1011.3 0.0
23/08:20pm NNW 15 26 - - - - 10 Partly cloudy - 13.5 1011.4 0.0
23/08:00pm NNW 14 21 - - - - 10 Partly cloudy - 13.6 1011.8 0.0
23/07:30pm NNW 13 20 - - - - 10 - - 13.7 1011.8 0.0
23/07:00pm NNW 12 17 - - - - 10 Partly cloudy - 13.9 1012.2 0.0
23/06:30pm NNW 12 19 - - - - 10 Partly cloudy - 14.1 1012.3 0.0
23/06:00pm NNW 12 17 - - - - 10 Mostly cloudy - 14.5 1012.7 0.0
23/05:30pm NW 11 16 - - - - 10 Partly cloudy - 14.6 1012.9 0.0
23/05:00pm NW 14 22 - - - - 10 - - 14.9 1013.0 0.0
23/04:30pm NW 15 21 - - - - 10 - - 15.2 1013.3 0.0
23/04:03pm NW 15 25 - - - - 10 Partly cloudy - 15.7 1013.3 0.0
23/04:00pm NW 16 25 - - - - 10 Partly cloudy - 15.6 1013.4 0.0
23/03:54pm NW 15 25 - - - - 10 Partly cloudy - 15.8 1013.4 0.0
23/03:30pm NW 16 25 - - - - 10 Partly cloudy - 15.7 1013.6 0.0
23/03:23pm NW 15 25 - - - - 10 Partly cloudy - 15.8 1013.7 0.0
23/03:00pm NW 16 24 - - - - 10 Cloudy - 15.9 1013.6 0.0
23/02:40pm NW 15 26 - - - - 10 - - 16.0 1013.9 0.0
23/02:30pm NW 14 21 - - - - 10 - - 16.0 1014.0 0.0
23/02:10pm NW 17 28 - - - - 10 - - 15.6 1014.2 0.0
23/02:00pm NW 17 25 - - - - 10 - - 15.8 1014.2 0.0
23/01:51pm NW 15 25 - - - - 10 - - 15.6 1014.4 0.0
23/01:30pm NW 15 23 - - - - 10 - - 15.6 1014.7 0.0
23/01:00pm NW 17 25 - - - - 10 - - 15.5 1015.3 0.0
23/12:47pm NW 15 25 - - - - 10 - - 15.3 1015.6 0.0
23/12:30pm NW 15 21 - - - - 10 - - 14.9 1016.0 0.0
23/12:20pm NW 16 26 - - - - 10 - - 15.0 1016.2 0.0
23/12:00pm NW 15 21 - - - - 10 - - 14.6 1016.6 0.0
23/11:30am NNW 16 25 - - - - 10 - - 14.2 1017.1 0.0
23/11:00am NNW 16 27 - - - - 10 - - 13.5 1017.6 0.0
23/10:52am NNW 16 27 - - - - 10 - - 13.3 1017.5 0.0
23/10:30am NNW 16 25 - - - - 10 Partly cloudy - 13.2 1017.8 0.0
23/10:21am NNW 16 23 - - - - 10 Partly cloudy - 13.2 1017.8 0.0
23/10:10am NNW 15 25 - - - - 10 Partly cloudy - 13.2 1018.0 0.0
23/10:00am NW 14 24 - - - - 10 Partly cloudy - 13.2 1018.0 0.0
23/09:40am NW 15 25 - - - - 10 Partly cloudy - 12.7 1018.2 0.0
23/09:35am NW 15 25 - - - - 10 Partly cloudy - 12.7 1018.2 0.0
23/09:30am NW 14 21 - - - - 10 Partly cloudy - 12.8 1018.2 0.0
23/09:00am NW 14 20 - - - - 10 Mostly clear - 12.5 1018.4 0.4
23/08:30am NNW 13 20 - - - - 10 - - 12.4 1018.7 0.4
23/08:00am NW 14 22 - - - - 10 - - 12.4 1018.7 0.4
23/07:30am NNW 13 21 - - - - 10 - - 12.3 1018.8 0.4
23/07:00am NW 13 19 - - - - 10 - - 12.5 1018.7 0.4
23/06:30am NW 13 18 - - - - 10 Partly cloudy - 12.6 1018.8 0.4
23/06:00am NNW 12 17 - - - - 10 Cloudy - 12.8 1018.9 0.4
23/05:59am NNW 13 21 - - - - 10 Partly cloudy - 12.9 1018.9 0.4
23/05:36am NW 13 19 - - - - 10 Partly cloudy - 12.7 1018.9 0.4
23/05:30am NNW 13 19 - - - - 10 Partly cloudy - 12.7 1018.9 0.4
23/05:21am NNW 12 18 - - - - 10 Partly cloudy - 12.4 1018.9 0.4
23/05:00am NW 12 17 - - - - 10 Partly cloudy - 12.4 1019.0 0.4
23/04:30am NW 12 17 - - - - 10 Cloudy - 12.4 1019.1 0.4
23/04:00am NNW 12 19 - - - - 10 Partly cloudy - 12.1 1019.2 0.4
23/03:30am NNW 13 20 - - - - 10 Partly cloudy - 11.7 1019.3 0.4
23/03:00am NNW 11 17 - - - - 10 Mostly cloudy - 11.8 1019.6 0.4
23/02:30am NNW 10 15 - - - - 10 Partly cloudy - 11.9 1020.0 0.4
23/02:00am NNW 11 15 - - - - 10 - - 12.0 1020.1 0.4
23/01:30am NNW 10 13 - - - - 10 - - 12.0 1020.6 0.4
23/01:00am NW 10 14 - - - - 10 Partly cloudy - 12.1 1020.9 0.4

Other formats

Comma delimited format used in spreadsheet applications
http://www.bom.gov.au/fwo/IDV60701/IDV60701.94828.axf

JavaScript Object Notation format (JSON) in row-major order
http://www.bom.gov.au/fwo/IDV60701/IDV60701.94828.json

Data quality

Most of these data are generated automatically and are frequently updated. Quality checks on data are not normally performed. It is possible for incorrect values to appear. Refer to information at About Latest Weather Observations and please check the disclaimer before using these data.